createdAt,value
2022-11-10T00:00:16.735Z,9.64
2022-11-10T00:02:43.370Z,9.56
2022-11-10T00:05:10.034Z,9.48
2022-11-10T00:07:36.706Z,9.42
2022-11-10T00:10:03.369Z,9.56
2022-11-10T00:12:30.050Z,9.59
2022-11-10T00:14:56.678Z,9.55
2022-11-10T00:17:23.648Z,9.43
2022-11-10T00:19:50.322Z,9.48
2022-11-10T00:22:17.002Z,9.52
2022-11-10T00:24:43.654Z,9.57
2022-11-10T00:27:10.332Z,9.58
2022-11-10T00:29:37.408Z,9.45
2022-11-10T00:32:04.051Z,9.50
2022-11-10T00:34:30.741Z,9.52
2022-11-10T00:36:57.387Z,9.49
2022-11-10T00:39:24.064Z,9.57
2022-11-10T00:41:50.743Z,9.43
2022-11-10T00:44:17.370Z,9.47
2022-11-10T00:46:44.139Z,9.40
2022-11-10T00:49:10.801Z,9.32
2022-11-10T00:51:37.481Z,9.36
2022-11-10T00:54:04.184Z,9.27
2022-11-10T00:56:30.833Z,9.35
2022-11-10T00:58:57.473Z,9.24
2022-11-10T01:01:24.246Z,9.24
2022-11-10T01:03:50.916Z,9.24
2022-11-10T01:06:17.543Z,8.95
2022-11-10T01:08:44.186Z,9.14
2022-11-10T01:11:10.841Z,9.12
2022-11-10T01:13:37.489Z,9.14
2022-11-10T01:16:04.139Z,9.30
2022-11-10T01:18:30.788Z,9.35
2022-11-10T01:20:57.502Z,9.27
2022-11-10T01:23:24.501Z,9.17
2022-11-10T01:25:51.300Z,8.99
2022-11-10T01:28:17.937Z,9.05
2022-11-10T01:30:44.576Z,9.23
2022-11-10T01:33:11.186Z,9.38
2022-11-10T01:35:37.848Z,9.53
2022-11-10T01:38:04.501Z,9.61
2022-11-10T01:40:31.201Z,9.65
2022-11-10T01:42:57.916Z,9.59
2022-11-10T01:45:24.547Z,9.65
2022-11-10T01:47:51.166Z,9.70
2022-11-10T01:50:17.776Z,9.87
2022-11-10T01:52:44.423Z,9.85
2022-11-10T01:55:11.101Z,9.59
2022-11-10T01:57:37.747Z,9.67
2022-11-10T02:00:04.404Z,9.69
2022-11-10T02:02:31.052Z,9.65
2022-11-10T02:04:57.721Z,9.69
2022-11-10T02:07:24.438Z,9.78
2022-11-10T02:09:51.078Z,9.83
2022-11-10T02:12:17.725Z,9.84
2022-11-10T02:14:44.388Z,9.99
2022-11-10T02:17:11.117Z,10.00
2022-11-10T02:19:37.772Z,9.92
2022-11-10T02:22:04.430Z,9.89
2022-11-10T02:24:31.103Z,10.03
2022-11-10T02:26:57.943Z,9.92
2022-11-10T02:29:24.589Z,9.97
2022-11-10T02:31:51.222Z,9.84
2022-11-10T02:34:17.876Z,9.75
2022-11-10T02:36:44.493Z,9.84
2022-11-10T02:39:11.156Z,9.80
2022-11-10T02:41:37.880Z,9.88
2022-11-10T02:44:04.555Z,9.87
2022-11-10T02:46:31.180Z,9.60
2022-11-10T02:48:57.827Z,9.73
2022-11-10T02:51:24.508Z,9.60
2022-11-10T02:53:51.373Z,9.65
2022-11-10T02:56:18.023Z,9.66
2022-11-10T02:58:44.695Z,9.44
2022-11-10T03:01:11.358Z,9.44
2022-11-10T03:03:38.042Z,9.16
2022-11-10T03:06:04.722Z,9.42
2022-11-10T03:08:31.376Z,9.55
2022-11-10T03:10:58.049Z,9.71
2022-11-10T03:13:25.006Z,9.61
2022-11-10T03:15:51.850Z,9.77
2022-11-10T03:18:18.478Z,9.70
2022-11-10T03:20:45.187Z,9.70
2022-11-10T03:23:11.884Z,9.47
2022-11-10T03:25:38.530Z,9.50
2022-11-10T03:28:05.214Z,9.21
2022-11-10T03:30:31.876Z,8.82
2022-11-10T03:32:58.537Z,9.05
2022-11-10T03:35:25.167Z,9.13
2022-11-10T03:37:51.803Z,9.51
2022-11-10T03:40:18.472Z,9.72
2022-11-10T03:42:45.137Z,9.69
2022-11-10T03:45:11.798Z,9.51
2022-11-10T03:47:38.443Z,9.58
2022-11-10T03:50:05.145Z,9.92
2022-11-10T03:52:31.826Z,10.04
2022-11-10T03:55:03.128Z,10.06
2022-11-10T03:57:30.286Z,10.09
2022-11-10T03:59:56.886Z,10.13
2022-11-10T04:02:23.547Z,9.94
2022-11-10T04:04:50.221Z,9.94
2022-11-10T04:07:16.889Z,9.89
2022-11-10T04:09:43.581Z,9.96
2022-11-10T04:12:10.212Z,9.68
2022-11-10T04:14:36.896Z,9.52
2022-11-10T04:17:03.519Z,9.54
2022-11-10T04:19:30.247Z,9.50
2022-11-10T04:21:56.878Z,9.40
2022-11-10T04:24:23.550Z,9.24
2022-11-10T04:26:50.219Z,9.40
2022-11-10T04:29:16.840Z,9.78
2022-11-10T04:31:43.557Z,9.66
2022-11-10T04:34:10.329Z,9.89
2022-11-10T04:36:36.993Z,10.09
2022-11-10T04:39:03.655Z,10.19
2022-11-10T04:41:30.300Z,10.20
2022-11-10T04:43:56.981Z,10.18
2022-11-10T04:46:23.649Z,9.92
2022-11-10T04:48:50.289Z,10.06
2022-11-10T04:51:16.980Z,10.10
2022-11-10T04:53:43.682Z,10.15
2022-11-10T04:56:10.397Z,10.05
2022-11-10T04:58:37.111Z,10.05
2022-11-10T05:01:03.772Z,10.12
2022-11-10T05:03:30.429Z,10.23
2022-11-10T05:05:57.056Z,10.27
2022-11-10T05:08:23.695Z,10.14
2022-11-10T05:10:51.074Z,10.20
2022-11-10T05:13:17.719Z,10.34
2022-11-10T05:15:44.460Z,10.25
2022-11-10T05:18:11.097Z,10.28
2022-11-10T05:20:37.786Z,10.15
2022-11-10T05:23:04.457Z,10.27
2022-11-10T05:25:31.094Z,10.30
2022-11-10T05:27:57.784Z,10.45
2022-11-10T05:30:24.432Z,10.35
2022-11-10T05:32:51.092Z,10.41
2022-11-10T05:35:17.726Z,10.53
2022-11-10T05:37:44.364Z,10.48
2022-11-10T05:40:11.079Z,10.53
2022-11-10T05:42:37.712Z,10.46
2022-11-10T05:45:04.399Z,10.26
2022-11-10T05:47:31.069Z,10.27
2022-11-10T05:52:43.446Z,10.46
2022-11-10T05:55:14.429Z,10.54
2022-11-10T05:57:41.079Z,10.58
2022-11-10T06:00:07.731Z,10.63
2022-11-10T06:02:34.411Z,10.67
2022-11-10T06:05:01.163Z,10.51
2022-11-10T06:07:27.784Z,10.60
2022-11-10T06:09:54.470Z,10.61
2022-11-10T06:12:21.143Z,10.69
2022-11-10T06:14:47.800Z,10.68
2022-11-10T06:17:14.468Z,10.49
2022-11-10T06:19:41.491Z,10.64
2022-11-10T06:22:08.191Z,10.81
2022-11-10T06:24:34.800Z,10.90
2022-11-10T06:27:01.520Z,10.98
2022-11-10T06:29:28.152Z,11.07
2022-11-10T06:31:54.877Z,11.14
2022-11-10T06:34:21.611Z,11.21
2022-11-10T06:36:48.260Z,11.14
2022-11-10T06:39:14.920Z,11.25
2022-11-10T06:41:41.655Z,11.25
2022-11-10T06:44:08.311Z,11.04
2022-11-10T06:46:38.235Z,11.09
2022-11-10T06:49:08.923Z,11.15
2022-11-10T06:51:35.599Z,11.09
2022-11-10T06:54:02.304Z,11.19
2022-11-10T06:56:28.950Z,11.22
2022-11-10T06:58:55.647Z,11.39
2022-11-10T07:01:22.727Z,11.54
2022-11-10T07:04:17.572Z,11.37
2022-11-10T07:06:36.379Z,11.44
2022-11-10T07:09:03.208Z,11.63
2022-11-10T07:11:29.857Z,11.77
2022-11-10T07:13:56.568Z,11.93
2022-11-10T07:16:24.550Z,11.94
2022-11-10T07:18:51.388Z,11.96
2022-11-10T07:21:18.033Z,11.90
2022-11-10T07:23:44.657Z,11.89
2022-11-10T07:26:11.353Z,12.02
2022-11-10T07:28:37.997Z,12.00
2022-11-10T07:31:04.673Z,11.81
2022-11-10T07:33:31.303Z,11.76
2022-11-10T07:35:57.973Z,11.94
2022-11-10T07:38:24.862Z,12.08
2022-11-10T07:40:51.585Z,12.31
2022-11-10T07:43:18.312Z,12.66
2022-11-10T07:45:44.980Z,12.84
2022-11-10T07:48:11.634Z,12.61
2022-11-10T07:50:38.342Z,12.63
2022-11-10T07:53:05.017Z,12.40
2022-11-10T07:55:31.671Z,12.29
2022-11-10T07:57:58.299Z,12.67
2022-11-10T08:00:24.946Z,12.93
2022-11-10T08:02:51.573Z,12.97
2022-11-10T08:05:18.233Z,13.24
2022-11-10T08:07:44.906Z,13.40
2022-11-10T08:10:11.602Z,13.35
2022-11-10T08:12:38.272Z,13.53
2022-11-10T08:15:04.940Z,13.59
2022-11-10T08:17:31.715Z,13.71
2022-11-10T08:19:58.356Z,13.65
2022-11-10T08:22:25.020Z,13.63
2022-11-10T08:24:51.667Z,13.15
2022-11-10T08:27:18.351Z,12.99
2022-11-10T08:29:45.032Z,13.23
2022-11-10T08:32:11.714Z,13.44
2022-11-10T08:34:38.419Z,13.63
2022-11-10T08:37:05.097Z,13.71
2022-11-10T08:39:39.071Z,13.70
2022-11-10T08:42:06.134Z,13.34
2022-11-10T08:44:32.804Z,13.23
2022-11-10T08:46:59.874Z,13.19
2022-11-10T08:49:26.547Z,13.46
2022-11-10T08:51:53.559Z,13.67
2022-11-10T08:54:20.216Z,13.54
2022-11-10T08:56:46.877Z,13.58
2022-11-10T08:59:13.525Z,13.78
2022-11-10T09:01:40.193Z,14.01
2022-11-10T09:04:06.871Z,14.19
2022-11-10T09:06:33.641Z,14.07
2022-11-10T09:09:00.338Z,14.07
2022-11-10T09:11:27.004Z,13.95
2022-11-10T09:13:53.668Z,14.05
2022-11-10T09:16:20.341Z,14.02
2022-11-10T09:18:46.990Z,13.81
2022-11-10T09:21:13.628Z,13.87
2022-11-10T09:23:40.311Z,14.10
2022-11-10T09:26:06.955Z,14.24
2022-11-10T09:28:33.823Z,14.32
2022-11-10T09:31:00.508Z,14.39
2022-11-10T09:33:27.184Z,14.20
2022-11-10T09:35:53.827Z,14.25
2022-11-10T09:38:20.720Z,14.17
2022-11-10T09:40:47.630Z,14.17
2022-11-10T09:43:14.275Z,14.09
2022-11-10T09:45:40.926Z,14.13
2022-11-10T09:48:07.589Z,14.27
2022-11-10T09:50:34.201Z,14.32
2022-11-10T09:53:00.859Z,14.35
2022-11-10T09:55:27.497Z,14.34
2022-11-10T09:57:54.178Z,14.42
2022-11-10T10:00:20.898Z,14.46
2022-11-10T10:02:47.599Z,14.43
2022-11-10T10:05:14.269Z,14.42
2022-11-10T10:07:40.935Z,14.59
2022-11-10T10:10:07.629Z,14.66
2022-11-10T10:12:34.531Z,14.60
2022-11-10T10:15:03.384Z,14.66
2022-11-10T10:17:30.075Z,14.68
2022-11-10T10:19:56.793Z,14.78
2022-11-10T10:22:23.488Z,14.90
2022-11-10T10:24:50.211Z,14.94
2022-11-10T10:27:16.835Z,14.91
2022-11-10T10:29:43.731Z,14.95
2022-11-10T10:32:10.440Z,14.98
2022-11-10T10:34:37.097Z,14.79
2022-11-10T10:37:03.790Z,14.79
2022-11-10T10:39:34.488Z,15.01
2022-11-10T10:42:01.237Z,14.99
2022-11-10T10:44:27.930Z,15.06
2022-11-10T10:46:56.562Z,14.96
2022-11-10T10:49:31.212Z,14.88
2022-11-10T10:51:58.177Z,14.71
2022-11-10T10:54:24.898Z,14.72
2022-11-10T10:56:51.585Z,14.66
2022-11-10T10:59:18.325Z,14.76
2022-11-10T11:01:45.136Z,14.89
2022-11-10T11:04:11.812Z,15.09
2022-11-10T11:06:38.563Z,15.21
2022-11-10T11:09:05.280Z,15.26
2022-11-10T11:11:31.974Z,15.30
2022-11-10T11:13:58.862Z,15.22
2022-11-10T11:16:25.540Z,15.11
2022-11-10T11:18:52.345Z,15.32
2022-11-10T11:21:19.015Z,15.42
2022-11-10T11:23:45.731Z,15.46
2022-11-10T11:26:12.421Z,15.48
2022-11-10T11:28:39.274Z,15.55
2022-11-10T11:31:05.999Z,15.54
2022-11-10T11:33:32.701Z,15.57
2022-11-10T11:35:59.364Z,15.61
2022-11-10T11:38:26.246Z,15.53
2022-11-10T11:40:53.190Z,15.62
2022-11-10T11:43:19.860Z,15.61
2022-11-10T11:45:46.511Z,15.69
2022-11-10T11:48:13.174Z,15.71
2022-11-10T11:50:39.860Z,15.84
2022-11-10T11:53:06.512Z,15.91
2022-11-10T11:55:33.158Z,15.99
2022-11-10T11:57:59.902Z,16.01
2022-11-10T12:00:26.587Z,16.11
2022-11-10T12:02:53.434Z,16.22
2022-11-10T12:05:20.227Z,16.27
2022-11-10T12:07:47.743Z,16.39
2022-11-10T12:10:14.360Z,16.43
2022-11-10T12:12:41.087Z,16.31
2022-11-10T12:15:07.764Z,16.26
2022-11-10T12:17:34.481Z,16.39
2022-11-10T12:20:01.193Z,16.41
2022-11-10T12:22:27.940Z,16.38
2022-11-10T12:24:54.620Z,16.53
2022-11-10T12:27:21.314Z,16.47
2022-11-10T12:29:47.980Z,16.60
2022-11-10T12:32:14.699Z,16.64
2022-11-10T12:34:41.387Z,16.54
2022-11-10T12:37:08.098Z,16.49
2022-11-10T12:39:34.788Z,16.57
2022-11-10T12:42:01.481Z,16.29
2022-11-10T12:44:28.221Z,16.48
2022-11-10T12:46:54.897Z,16.29
2022-11-10T12:49:21.611Z,16.34
2022-11-10T12:51:48.605Z,16.41
2022-11-10T12:54:17.026Z,16.48
2022-11-10T12:56:44.313Z,16.22
2022-11-10T12:59:11.393Z,16.16
2022-11-10T13:01:38.400Z,16.16
2022-11-10T13:04:05.186Z,16.19
2022-11-10T13:06:32.300Z,16.43
2022-11-10T13:08:59.001Z,16.37
2022-11-10T13:11:25.670Z,16.40
2022-11-10T13:13:58.187Z,16.46
2022-11-10T13:16:26.088Z,16.50
2022-11-10T13:18:52.732Z,16.21
2022-11-10T13:21:19.368Z,16.32
2022-11-10T13:23:46.000Z,16.41
2022-11-10T13:26:12.659Z,16.46
2022-11-10T13:28:39.271Z,16.60
2022-11-10T13:31:05.915Z,16.76
2022-11-10T13:33:32.555Z,16.80
2022-11-10T13:35:59.412Z,16.94
2022-11-10T13:38:26.246Z,17.08
2022-11-10T13:40:52.897Z,17.08
2022-11-10T13:43:19.542Z,16.75
2022-11-10T13:45:46.186Z,16.63
2022-11-10T13:48:12.865Z,16.93
2022-11-10T13:50:39.547Z,17.34
2022-11-10T13:53:06.181Z,17.57
2022-11-10T13:55:32.828Z,17.46
2022-11-10T13:57:59.480Z,17.28
2022-11-10T14:00:26.169Z,17.34
2022-11-10T14:02:52.913Z,17.41
2022-11-10T14:05:19.628Z,17.35
2022-11-10T14:07:46.290Z,17.13
2022-11-10T14:10:12.937Z,16.79
2022-11-10T14:12:39.585Z,16.54
2022-11-10T14:15:06.216Z,16.50
2022-11-10T14:17:32.829Z,16.55
2022-11-10T14:19:59.483Z,16.80
2022-11-10T14:22:26.152Z,16.89
2022-11-10T14:24:52.851Z,16.89
2022-11-10T14:27:19.620Z,16.98
2022-11-10T14:29:46.268Z,17.05
2022-11-10T14:32:13.005Z,17.04
2022-11-10T14:34:39.641Z,16.91
2022-11-10T14:37:06.381Z,16.85
2022-11-10T14:39:33.012Z,16.89
2022-11-10T14:41:59.652Z,16.87
2022-11-10T14:44:26.305Z,16.72
2022-11-10T14:46:53.154Z,16.72
2022-11-10T14:49:19.879Z,16.76
2022-11-10T14:51:46.532Z,16.70
2022-11-10T14:54:13.209Z,16.60
2022-11-10T14:56:39.882Z,16.43
2022-11-10T14:59:06.540Z,16.44
2022-11-10T15:01:33.439Z,16.40
2022-11-10T15:04:00.430Z,16.33
2022-11-10T15:06:27.102Z,16.24
2022-11-10T15:08:53.823Z,16.20
2022-11-10T15:11:20.501Z,16.14
2022-11-10T15:13:47.286Z,16.07
2022-11-10T15:16:14.060Z,16.06
2022-11-10T15:18:41.093Z,16.02
2022-11-10T15:21:07.980Z,15.88
2022-11-10T15:23:34.844Z,15.69
2022-11-10T15:26:01.655Z,15.66
2022-11-10T15:28:28.335Z,15.58
2022-11-10T15:30:55.092Z,15.54
2022-11-10T15:33:22.112Z,15.35
2022-11-10T15:35:49.051Z,15.36
2022-11-10T15:38:20.728Z,14.99
2022-11-10T15:40:48.180Z,15.07
2022-11-10T15:43:14.967Z,15.04
2022-11-10T15:45:41.778Z,15.02
2022-11-10T15:48:08.839Z,14.98
2022-11-10T15:50:36.889Z,14.88
2022-11-10T15:53:04.016Z,14.82
2022-11-10T15:55:31.973Z,14.80
2022-11-10T15:57:58.896Z,14.71
2022-11-10T16:00:25.804Z,14.50
2022-11-10T16:02:52.983Z,14.44
2022-11-10T16:05:19.705Z,14.51
2022-11-10T16:07:46.475Z,14.47
2022-11-10T16:10:13.288Z,14.43
2022-11-10T16:12:40.321Z,14.49
2022-11-10T16:15:07.691Z,14.39
2022-11-10T16:17:34.859Z,14.27
2022-11-10T16:20:01.767Z,14.22
2022-11-10T16:22:28.589Z,14.17
2022-11-10T16:24:56.603Z,14.00
2022-11-10T16:27:23.341Z,14.01
2022-11-10T16:29:50.271Z,14.01
2022-11-10T16:32:17.061Z,13.90
2022-11-10T16:34:43.893Z,13.69
2022-11-10T16:37:10.805Z,13.78
2022-11-10T16:39:37.599Z,13.59
2022-11-10T16:42:04.553Z,13.59
2022-11-10T16:44:31.402Z,13.34
2022-11-10T16:46:58.200Z,13.06
2022-11-10T16:49:24.910Z,13.16
2022-11-10T16:51:51.543Z,13.21
2022-11-10T16:54:18.141Z,13.04
2022-11-10T16:56:44.873Z,12.82
2022-11-10T16:59:11.515Z,13.20
2022-11-10T17:01:38.226Z,13.23
2022-11-10T17:04:04.862Z,13.14
2022-11-10T17:06:31.657Z,13.00
2022-11-10T17:08:58.434Z,12.94
2022-11-10T17:11:25.082Z,12.95
2022-11-10T17:13:51.715Z,12.90
2022-11-10T17:16:18.380Z,12.89
2022-11-10T17:18:45.171Z,12.89
2022-11-10T17:21:11.810Z,12.79
2022-11-10T17:23:38.527Z,12.47
2022-11-10T17:26:05.216Z,12.73
2022-11-10T17:28:31.853Z,12.59
2022-11-10T17:30:58.505Z,12.54
2022-11-10T17:33:25.584Z,12.35
2022-11-10T17:35:52.552Z,12.42
2022-11-10T17:38:19.191Z,12.49
2022-11-10T17:40:45.806Z,12.48
2022-11-10T17:43:12.432Z,12.48
2022-11-10T17:45:39.111Z,12.55
2022-11-10T17:48:05.777Z,12.55
2022-11-10T17:50:32.408Z,12.45
2022-11-10T17:52:59.042Z,12.36
2022-11-10T17:55:29.768Z,12.39
2022-11-10T17:57:59.545Z,12.25
2022-11-10T18:00:26.215Z,12.31
2022-11-10T18:02:55.337Z,12.30
2022-11-10T18:05:22.163Z,12.40
2022-11-10T18:07:48.797Z,12.20
2022-11-10T18:10:15.456Z,12.05
2022-11-10T18:12:42.133Z,11.94
2022-11-10T18:15:08.772Z,12.09
2022-11-10T18:17:35.431Z,12.12
2022-11-10T18:20:02.072Z,12.15
2022-11-10T18:22:28.706Z,12.16
2022-11-10T18:24:55.376Z,12.02
2022-11-10T18:27:22.033Z,11.99
2022-11-10T18:29:48.721Z,12.18
2022-11-10T18:32:15.358Z,12.10
2022-11-10T18:34:41.981Z,11.96
2022-11-10T18:37:08.668Z,11.80
2022-11-10T18:39:35.313Z,11.79
2022-11-10T18:42:01.965Z,11.51
2022-11-10T18:44:28.604Z,11.74
2022-11-10T18:46:55.284Z,11.64
2022-11-10T18:49:21.968Z,11.63
2022-11-10T18:51:48.591Z,11.51
2022-11-10T18:54:15.270Z,11.51
2022-11-10T18:56:41.875Z,11.37
2022-11-10T18:59:08.524Z,11.30
2022-11-10T19:01:35.194Z,11.25
2022-11-10T19:04:01.959Z,11.41
2022-11-10T19:06:28.735Z,11.28
2022-11-10T19:08:55.367Z,11.38
2022-11-10T19:11:22.007Z,11.44
2022-11-10T19:13:48.649Z,11.62
2022-11-10T19:16:15.284Z,11.30
2022-11-10T19:18:41.951Z,10.98
2022-11-10T19:21:08.628Z,11.14
2022-11-10T19:23:35.337Z,11.27
2022-11-10T19:26:01.965Z,11.12
2022-11-10T19:28:28.704Z,11.08
2022-11-10T19:30:55.308Z,11.04
2022-11-10T19:33:22.212Z,11.13
2022-11-10T19:35:49.124Z,11.23
2022-11-10T19:38:15.890Z,11.05
2022-11-10T19:40:42.546Z,10.85
2022-11-10T19:43:09.192Z,10.97
2022-11-10T19:45:35.888Z,10.95
2022-11-10T19:48:02.595Z,11.02
2022-11-10T19:50:29.340Z,11.07
2022-11-10T19:52:56.084Z,10.88
2022-11-10T19:55:22.735Z,10.81
2022-11-10T19:57:49.482Z,10.81
2022-11-10T20:00:16.165Z,10.69
2022-11-10T20:02:45.527Z,10.81
2022-11-10T20:05:12.599Z,10.80
2022-11-10T20:07:39.345Z,10.87
2022-11-10T20:10:06.001Z,10.70
2022-11-10T20:12:32.647Z,10.82
2022-11-10T20:14:59.368Z,10.81
2022-11-10T20:17:26.019Z,10.77
2022-11-10T20:19:52.704Z,10.64
2022-11-10T20:22:19.363Z,10.68
2022-11-10T20:27:36.414Z,10.66
2022-11-10T20:30:03.160Z,10.63
2022-11-10T20:32:29.887Z,10.57
2022-11-10T20:34:57.579Z,10.64
2022-11-10T20:37:24.224Z,10.59
2022-11-10T20:39:50.853Z,10.65
2022-11-10T20:42:17.609Z,10.50
2022-11-10T20:44:46.249Z,10.35
2022-11-10T20:47:12.946Z,10.17
2022-11-10T20:49:39.640Z,10.10
2022-11-10T20:52:06.271Z,10.19
2022-11-10T20:54:33.535Z,10.49
2022-11-10T20:57:00.267Z,10.50
2022-11-10T20:59:26.921Z,10.47
2022-11-10T21:01:53.647Z,10.54
2022-11-10T21:04:20.385Z,10.49
2022-11-10T21:06:47.094Z,10.35
2022-11-10T21:09:13.811Z,10.27
2022-11-10T21:11:40.440Z,10.26
2022-11-10T21:14:07.065Z,10.40
2022-11-10T21:16:33.751Z,10.40
2022-11-10T21:19:00.379Z,10.31
2022-11-10T21:21:27.019Z,10.29
2022-11-10T21:23:53.715Z,10.06
2022-11-10T21:26:20.366Z,10.09
2022-11-10T21:28:47.176Z,10.09
2022-11-10T21:31:13.862Z,10.17
2022-11-10T21:33:40.586Z,10.14
2022-11-10T21:36:07.242Z,10.18
2022-11-10T21:38:34.064Z,10.05
2022-11-10T21:41:00.724Z,9.86
2022-11-10T21:43:27.412Z,9.82
2022-11-10T21:45:54.027Z,10.02
2022-11-10T21:48:20.678Z,9.99
2022-11-10T21:50:47.312Z,10.01
2022-11-10T21:53:14.175Z,10.05
2022-11-10T21:55:40.919Z,9.98
2022-11-10T21:58:07.583Z,9.94
2022-11-10T22:00:34.208Z,10.01
2022-11-10T22:03:00.866Z,9.83
2022-11-10T22:05:27.530Z,9.78
2022-11-10T22:07:54.169Z,9.78
2022-11-10T22:10:20.817Z,9.77
2022-11-10T22:12:47.452Z,9.14
2022-11-10T22:15:14.198Z,9.30
2022-11-10T22:17:40.850Z,9.46
2022-11-10T22:20:07.503Z,9.38
2022-11-10T22:22:34.137Z,9.51
2022-11-10T22:25:00.758Z,9.47
2022-11-10T22:27:27.437Z,9.47
2022-11-10T22:29:54.068Z,9.56
2022-11-10T22:32:20.718Z,9.63
2022-11-10T22:34:47.373Z,9.50
2022-11-10T22:37:14.038Z,9.52
2022-11-10T22:39:40.667Z,9.59
2022-11-10T22:42:07.300Z,9.61
2022-11-10T22:44:33.942Z,9.62
2022-11-10T22:47:00.692Z,9.61
2022-11-10T22:49:27.359Z,9.56
2022-11-10T22:51:54.040Z,9.47
2022-11-10T22:54:20.656Z,9.52
2022-11-10T22:56:47.314Z,9.52
2022-11-10T22:59:13.971Z,9.48
2022-11-10T23:01:40.628Z,9.47
2022-11-10T23:04:07.335Z,9.55
2022-11-10T23:06:34.086Z,9.33
2022-11-10T23:09:00.796Z,9.45
2022-11-10T23:11:27.429Z,9.42
2022-11-10T23:13:54.083Z,9.44
2022-11-10T23:16:20.765Z,9.40
2022-11-10T23:18:47.400Z,9.46
2022-11-10T23:21:14.054Z,9.42
2022-11-10T23:23:40.719Z,9.47
2022-11-10T23:26:07.372Z,9.44
2022-11-10T23:28:34.049Z,9.19
2022-11-10T23:31:00.723Z,9.13
2022-11-10T23:33:32.257Z,9.25
2022-11-10T23:35:59.565Z,9.03
2022-11-10T23:38:26.181Z,9.24
2022-11-10T23:40:53.030Z,9.33
2022-11-10T23:43:19.652Z,9.36
2022-11-10T23:46:05.814Z,9.15
2022-11-10T23:48:32.916Z,9.06
2022-11-10T23:50:59.554Z,9.01
2022-11-10T23:53:26.540Z,8.88
2022-11-10T23:55:53.323Z,9.01
2022-11-10T23:58:19.967Z,9.19
